Time;durP1;ratioP1;P1;durP2;ratioP2;P2;SDS_P1;SDS_P2;PMS_P1;PMS_P2;Temp;Humidity;BMP_temperature;BMP_pressure;BME280_temperature;BME280_humidity;BME280_pressure;Samples;Min_cycle;Max_cycle;Signal;HPM_P1;HPM_P2
2022/12/25 00:02:06;;;;;;;1.00;1.00;;;;;;;-1.70;94.22;99203.75;4896909;29;20541;-89
2022/12/25 00:04:33;;;;;;;0.90;0.90;;;;;;;-1.70;93.67;99200.28;4914263;29;20044;-89
2022/12/25 00:07:00;;;;;;;1.10;1.10;;;;;;;-1.73;93.38;99208.53;4913809;29;20103;-88
2022/12/25 00:09:27;;;;;;;0.90;0.90;;;;;;;-1.73;93.05;99208.53;4917537;29;20103;-89
2022/12/25 00:11:55;;;;;;;1.00;1.00;;;;;;;-1.81;92.90;99220.75;4925564;29;20055;-89
2022/12/25 00:14:22;;;;;;;0.90;0.90;;;;;;;-1.82;92.72;99223.56;4934045;29;20068;-88
2022/12/25 00:16:49;;;;;;;0.95;0.95;;;;;;;-1.80;92.82;99224.22;4937849;29;20048;-89
2022/12/25 00:19:16;;;;;;;1.00;1.00;;;;;;;-1.79;92.71;99218.78;4937222;29;20028;-88
2022/12/25 00:21:43;;;;;;;0.80;0.80;;;;;;;-1.78;92.49;99232.81;4919041;29;20060;-89
2022/12/25 00:24:10;;;;;;;1.00;1.00;;;;;;;-1.77;92.45;99240.63;4917447;29;20574;-89
2022/12/25 00:26:38;;;;;;;0.93;0.93;;;;;;;-1.75;92.78;99243.94;4917616;29;20150;-89
2022/12/25 00:29:05;;;;;;;1.00;1.00;;;;;;;-1.78;92.41;99244.22;4923148;29;20056;-88
2022/12/25 00:31:33;;;;;;;0.80;0.80;;;;;;;-1.76;92.58;99252.03;4917203;29;20099;-89
2022/12/25 00:34:00;;;;;;;0.90;0.90;;;;;;;-1.76;92.67;99247.56;4915266;29;20056;-90
2022/12/25 00:36:27;;;;;;;1.00;1.00;;;;;;;-1.74;92.39;99252.69;4916014;29;20427;-87
2022/12/25 00:38:54;;;;;;;1.00;1.00;;;;;;;-1.69;92.23;99250.41;4915376;29;20052;-88
2022/12/25 00:44:11;;;;;;;1.00;1.00;;;;;;;-1.67;92.15;99252.88;4916227;29;20088;-87
2022/12/25 00:46:39;;;;;;;1.00;1.00;;;;;;;-1.68;92.50;99257.34;4915529;29;20048;-88
2022/12/25 00:49:06;;;;;;;0.93;0.93;;;;;;;-1.67;92.63;99263.44;4916522;29;20064;-87
2022/12/25 00:51:33;;;;;;;0.98;0.98;;;;;;;-1.64;92.36;99260.50;4914808;29;20059;-89
2022/12/25 00:54:00;;;;;;;0.90;0.90;;;;;;;-1.66;92.27;99270.41;4915688;29;20055;-87
2022/12/25 00:56:27;;;;;;;0.90;0.90;;;;;;;-1.70;92.13;99269.06;4915736;29;20087;-87
2022/12/25 00:58:54;;;;;;;0.90;0.90;;;;;;;-1.69;92.06;99278.69;4915712;29;20052;-87
2022/12/25 01:01:21;;;;;;;0.70;0.70;;;;;;;-1.73;92.11;99279.97;4915823;29;20058;-86
2022/12/25 01:03:48;;;;;;;0.90;0.90;;;;;;;-1.82;92.36;99274.66;4916031;29;20151;-90
2022/12/25 01:06:16;;;;;;;0.70;0.70;;;;;;;-1.80;92.92;99291.22;4916920;29;20047;-89
2022/12/25 01:11:33;;;;;;;0.90;0.90;;;;;;;-2.02;94.02;99294.41;4932281;29;20047;-88
2022/12/25 01:14:00;;;;;;;0.80;0.80;;;;;;;-2.16;94.33;99295.78;4915863;29;20147;-88
2022/12/25 01:16:27;;;;;;;1.00;1.00;;;;;;;-2.23;94.96;99292.97;4931526;29;20083;-88
2022/12/25 01:18:55;;;;;;;1.00;1.00;;;;;;;-2.20;95.67;99303.22;4913359;29;20056;-89
2022/12/25 01:21:22;;;;;;;1.00;1.00;;;;;;;-2.19;95.97;99294.28;4913700;29;20055;-87
2022/12/25 01:23:51;;;;;;;0.90;0.90;;;;;;;-2.19;96.03;99293.47;4914555;29;20155;-89
2022/12/25 01:26:21;;;;;;;0.90;0.90;;;;;;;-2.19;96.25;99304.03;4913147;29;20056;-88
2022/12/25 01:28:49;;;;;;;1.05;1.05;;;;;;;-2.22;96.06;99307.00;4898360;29;20511;-89
2022/12/25 01:31:18;;;;;;;0.90;0.90;;;;;;;-2.25;96.19;99305.50;4897765;29;20079;-87
2022/12/25 01:33:45;;;;;;;1.00;1.00;;;;;;;-2.29;96.22;99309.41;4928713;29;20096;-89
2022/12/25 01:36:18;;;;;;;0.95;0.95;;;;;;;-2.38;96.16;99320.94;4931330;29;20099;-88
2022/12/25 01:38:45;;;;;;;0.90;0.90;;;;;;;-2.50;95.65;99319.50;4917042;29;20063;-88
2022/12/25 01:41:14;;;;;;;0.90;0.90;;;;;;;-2.60;95.28;99331.97;4912839;29;20130;-89
2022/12/25 01:44:23;;;;;;;0.98;0.98;;;;;;;-2.72;95.26;99336.66;4896994;29;20048;-88
2022/12/25 01:46:50;;;;;;;1.10;1.10;;;;;;;-2.89;95.55;99340.94;4855562;29;20090;-89
2022/12/25 01:49:20;;;;;;;0.90;0.90;;;;;;;-2.97;95.33;99343.50;4857251;29;20548;-88
2022/12/25 01:51:56;;;;;;;0.90;0.90;;;;;;;-2.99;95.41;99348.09;4828036;29;20121;-88
2022/12/25 01:54:32;;;;;;;1.08;1.08;;;;;;;-2.93;95.55;99348.34;4851207;29;20053;-88
2022/12/25 01:57:02;;;;;;;1.10;1.10;;;;;;;-2.81;95.10;99350.75;4845754;29;20082;-88
2022/12/25 01:59:29;;;;;;;0.93;0.93;;;;;;;-2.74;94.71;99357.09;4857233;29;20056;-87
2022/12/25 02:01:57;;;;;;;0.90;0.90;;;;;;;-2.69;94.25;99355.66;4841068;29;20488;-87
2022/12/25 02:04:38;;;;;;;0.90;0.90;;;;;;;-2.72;92.90;99353.34;4856564;29;20057;-87
2022/12/25 02:07:23;;;;;;;0.95;0.95;;;;;;;-2.69;91.64;99357.50;4856209;29;20092;-88
2022/12/25 02:09:51;;;;;;;;;;;;;;;-2.69;90.77;99370.69;4856144;29;20065;-88
2022/12/25 02:12:23;;;;;;;0.93;0.93;;;;;;;-2.73;89.73;99359.63;4856196;29;19928;-88
2022/12/25 02:14:52;;;;;;;0.90;0.90;;;;;;;-2.69;89.70;99365.41;4856104;29;20049;-87
2022/12/25 02:17:39;;;;;;;1.00;1.00;;;;;;;-2.77;89.15;99367.97;4826801;29;20469;-89
2022/12/25 02:20:15;;;;;;;1.00;1.00;;;;;;;-2.74;89.09;99365.03;4840930;29;20050;-89
2022/12/25 02:23:04;;;;;;;0.90;0.90;;;;;;;-2.75;88.95;99369.50;4857266;29;20073;-89
2022/12/25 02:26:05;;;;;;;0.82;0.82;;;;;;;-2.75;88.90;99379.25;4901226;29;20547;-89
2022/12/25 02:28:54;;;;;;;0.93;0.93;;;;;;;-2.78;88.49;99383.00;4912232;29;20151;-88
2022/12/25 02:31:37;;;;;;;1.10;1.10;;;;;;;-2.86;87.81;99385.53;4907650;29;20092;-87
2022/12/25 02:34:14;;;;;;;1.00;1.00;;;;;;;-2.91;87.94;99395.72;4907958;29;20075;-87
2022/12/25 02:37:00;;;;;;;0.90;0.90;;;;;;;-2.94;87.68;99399.50;4910218;29;20392;-89
2022/12/25 02:40:04;;;;;;;1.00;1.00;;;;;;;-2.92;87.58;99391.44;4913689;29;20102;-88
2022/12/25 03:08:04;;;;;;;1.00;1.00;;;;;;;-2.96;88.16;99424.41;4897160;29;20186;-89
2022/12/25 03:13:22;;;;;;;1.10;1.10;;;;;;;-3.15;87.54;99436.72;4913721;29;20149;-85
2022/12/25 03:18:35;;;;;;;1.00;1.00;;;;;;;-3.13;88.26;99440.06;4914869;29;20048;-88
2022/12/25 03:26:55;;;;;;;1.00;1.00;;;;;;;-3.19;87.69;99445.06;4913744;29;20096;-86
2022/12/25 03:32:18;;;;;;;0.80;0.80;;;;;;;-3.24;87.21;99463.16;4914287;29;20112;-87
2022/12/25 03:35:22;;;;;;;1.00;1.00;;;;;;;-3.34;86.21;99466.69;4915109;29;20059;-88
2022/12/25 04:37:26;;;;;;;0.80;0.80;;;;;;;-3.73;84.75;99532.72;4922989;29;20052;-89
2022/12/25 04:39:53;;;;;;;0.85;0.85;;;;;;;-3.75;84.69;99526.78;4910129;29;20052;-87
2022/12/25 04:42:20;;;;;;;0.90;0.90;;;;;;;-3.73;84.55;99534.53;4917371;29;20059;-88
2022/12/25 04:44:47;;;;;;;0.90;0.90;;;;;;;-3.71;84.60;99532.59;4918989;29;20056;-88
2022/12/25 04:47:14;;;;;;;0.80;0.80;;;;;;;-3.69;84.43;99535.09;4917582;29;20102;-87
2022/12/25 04:49:41;;;;;;;1.10;1.10;;;;;;;-3.80;84.29;99538.69;4917253;29;20094;-89
2022/12/25 04:52:08;;;;;;;1.05;1.05;;;;;;;-3.90;84.13;99546.59;4916484;29;20052;-88
2022/12/25 04:54:37;;;;;;;0.90;0.90;;;;;;;-3.86;83.98;99552.44;4917637;29;20058;-87
2022/12/25 04:57:04;;;;;;;0.90;0.90;;;;;;;-3.85;84.15;99554.09;4913689;29;20080;-86
2022/12/25 04:59:37;;;;;;;1.00;1.00;;;;;;;-3.85;84.07;99564.66;4909672;29;20048;-86
2022/12/25 05:02:04;;;;;;;0.90;0.90;;;;;;;-3.84;83.95;99558.41;4907692;29;20415;-86
2022/12/25 05:04:31;;;;;;;1.00;1.00;;;;;;;-3.87;83.67;99553.41;4916663;29;20447;-85
2022/12/25 05:06:58;;;;;;;0.80;0.80;;;;;;;-3.92;83.30;99567.84;4914234;29;20071;-86
2022/12/25 05:09:26;;;;;;;1.10;1.10;;;;;;;-3.94;83.26;99569.78;4926728;29;20056;-84
2022/12/25 05:11:58;;;;;;;1.10;1.10;;;;;;;-3.93;83.66;99576.72;4914787;29;20079;-88
2022/12/25 05:14:25;;;;;;;0.90;0.90;;;;;;;-3.89;84.13;99577.28;4910709;29;20086;-86
2022/12/25 05:16:53;;;;;;;1.02;1.02;;;;;;;-3.81;84.30;99595.06;4912710;29;20083;-86
2022/12/25 05:19:20;;;;;;;0.88;0.88;;;;;;;-3.77;84.51;99607.00;4915917;29;20430;-88
2022/12/25 05:21:47;;;;;;;0.95;0.95;;;;;;;-3.77;84.45;99610.47;4914135;29;20079;-88
2022/12/25 05:24:14;;;;;;;1.00;1.00;;;;;;;-3.76;84.58;99606.03;4906927;29;20112;-91
2022/12/25 05:26:42;;;;;;;0.82;0.82;;;;;;;-3.79;84.46;99604.50;4913624;29;20052;-89
2022/12/25 05:29:09;;;;;;;0.90;0.90;;;;;;;-3.67;84.49;99617.53;4909614;29;20710;-89
2022/12/25 05:31:38;;;;;;;1.00;1.00;;;;;;;-3.72;84.40;99624.09;4907574;29;20056;-89
2022/12/25 05:34:09;;;;;;;1.17;1.17;;;;;;;-3.72;84.82;99620.63;4910132;29;20079;-87
2022/12/25 05:36:42;;;;;;;0.90;0.90;;;;;;;-3.73;84.88;99635.59;4924493;29;20409;-93
2022/12/25 05:39:09;;;;;;;0.98;0.98;;;;;;;-3.77;nan;99641.31;4921825;29;20067;-90
2022/12/25 05:41:36;;;;;;;0.90;0.90;;;;;;;-3.76;84.95;99642.97;4932131;29;20111;-91
2022/12/25 05:44:04;;;;;;;0.90;0.90;;;;;;;-3.83;85.04;99636.56;4920268;29;20052;-94
2022/12/25 05:46:56;;;;;;;1.00;1.00;;;;;;;-3.79;85.00;99641.44;4931345;29;20104;-91
2022/12/25 05:49:24;;;;;;;0.90;0.90;;;;;;;-3.99;83.93;99663.47;4905752;29;20468;-91
2022/12/25 05:51:54;;;;;;;1.00;1.00;;;;;;;-4.06;83.60;99663.16;4904418;29;20059;-93
2022/12/25 05:54:23;;;;;;;1.10;1.10;;;;;;;-4.10;83.31;99667.06;4895998;29;20056;-90
2022/12/25 05:56:52;;;;;;;0.95;0.95;;;;;;;-4.20;83.22;99663.56;4890196;29;20056;-89
2022/12/25 05:59:19;;;;;;;0.95;0.95;;;;;;;-4.29;82.90;99659.06;4915138;29;20438;-88
2022/12/25 06:01:47;;;;;;;1.00;1.00;;;;;;;-4.28;82.75;99666.00;4948181;23;20042;-93
2022/12/25 06:04:30;;;;;;;0.93;0.93;;;;;;;-4.48;82.21;99655.41;4917199;29;20029;-91
2022/12/25 06:06:57;;;;;;;1.10;1.10;;;;;;;-4.55;81.92;99662.16;4967215;28;20054;-94
2022/12/25 06:09:29;;;;;;;1.08;1.08;;;;;;;-4.64;82.12;99660.31;4967337;29;20054;-92
2022/12/25 06:12:05;;;;;;;1.00;1.00;;;;;;;-4.58;82.04;99670.34;4950782;29;20066;-92
2022/12/25 06:14:38;;;;;;;1.00;1.00;;;;;;;-4.65;81.66;99685.81;4597826;29;10000428;-92
2022/12/25 06:17:11;;;;;;;0.93;0.93;;;;;;;-4.64;81.70;99684.84;4953666;28;20066;-92
2022/12/25 06:19:53;;;;;;;1.08;1.08;;;;;;;-4.55;81.74;99693.78;4937751;29;20043;-91
2022/12/25 06:22:20;;;;;;;0.80;0.80;;;;;;;-4.59;81.47;99692.34;4959114;29;20056;-87
2022/12/25 06:24:49;;;;;;;0.90;0.90;;;;;;;-4.57;81.67;99693.06;4971371;28;20043;-92
2022/12/25 06:27:16;;;;;;;0.90;0.90;;;;;;;-4.55;81.65;99696.41;4962418;29;20067;-92
2022/12/25 06:29:44;;;;;;;1.10;1.10;;;;;;;-4.52;81.82;99708.47;4952416;29;20056;-92
2022/12/25 06:32:11;;;;;;;1.02;1.02;;;;;;;-4.50;81.86;99707.38;4932506;29;20047;-94
2022/12/25 06:34:52;;;;;;;0.85;0.85;;;;;;;-4.57;81.88;99686.00;4946960;29;20766;-93
2022/12/25 06:37:19;;;;;;;1.00;1.00;;;;;;;-4.48;81.16;99710.72;4956280;29;20086;-95
2022/12/25 06:39:50;;;;;;;0.80;0.80;;;;;;;-4.52;81.23;99711.13;4940563;29;20051;-92
2022/12/25 06:42:17;;;;;;;0.70;0.70;;;;;;;-4.58;81.25;99715.13;4933971;29;20051;-91
2022/12/25 06:44:44;;;;;;;1.10;1.10;;;;;;;-4.51;81.01;99715.41;4946561;29;20067;-89
2022/12/25 06:47:16;;;;;;;0.98;0.98;;;;;;;-4.44;81.17;99722.66;4956818;29;20054;-93
2022/12/25 06:49:43;;;;;;;0.98;0.98;;;;;;;-4.41;80.80;99714.50;4919223;29;20119;-86
2022/12/25 06:52:10;;;;;;;0.90;0.90;;;;;;;-4.36;80.92;99719.38;4934146;29;20059;-87
2022/12/25 06:54:37;;;;;;;0.90;0.90;;;;;;;-4.41;80.47;99724.19;4935623;29;20051;-92
2022/12/25 06:57:04;;;;;;;0.75;0.75;;;;;;;-4.53;80.40;99730.50;4952294;29;20421;-93
2022/12/25 06:59:35;;;;;;;0.80;0.80;;;;;;;-4.58;80.25;99725.66;4963718;29;20051;-95
2022/12/25 07:02:02;;;;;;;1.10;1.10;;;;;;;-4.53;80.48;99731.38;4936887;29;20059;-91
2022/12/25 07:04:37;;;;;;;1.00;1.00;;;;;;;-4.54;80.43;99737.59;4955484;29;20062;-92
2022/12/25 07:07:14;;;;;;;0.88;0.88;;;;;;;-4.47;80.45;99727.38;4930899;29;20094;-92
2022/12/25 07:09:44;;;;;;;0.90;0.90;;;;;;;-4.48;80.39;99734.44;4920866;29;20074;-89
2022/12/25 07:12:22;;;;;;;0.85;0.85;;;;;;;-4.52;80.60;99733.03;4939375;29;20059;-90
2022/12/25 07:14:53;;;;;;;0.90;0.90;;;;;;;-4.32;80.86;99735.78;4925356;29;20047;-88
2022/12/25 07:17:21;;;;;;;0.98;0.98;;;;;;;-4.27;80.72;99736.22;4939005;28;20058;-90
2022/12/25 07:19:48;;;;;;;1.00;1.00;;;;;;;-4.26;80.45;99722.06;4934318;29;20135;-88
2022/12/25 07:22:16;;;;;;;1.00;1.00;;;;;;;-4.16;80.46;99733.47;4930978;29;20075;-88
2022/12/25 07:24:45;;;;;;;0.90;0.90;;;;;;;-4.10;80.75;99738.22;4901011;29;20063;-88
2022/12/25 07:27:12;;;;;;;0.90;0.90;;;;;;;-4.20;80.74;99732.91;4946966;29;20071;-85
2022/12/25 07:29:39;;;;;;;0.90;0.90;;;;;;;-4.14;79.73;99747.38;4933691;29;20071;-86
2022/12/25 07:32:06;;;;;;;1.00;1.00;;;;;;;-4.26;79.73;99751.88;4939463;28;20051;-85
2022/12/25 07:34:33;;;;;;;0.98;0.98;;;;;;;-4.22;80.07;99760.38;4952904;29;20054;-87
2022/12/25 07:37:04;;;;;;;0.65;0.65;;;;;;;-4.23;79.98;99763.97;4936028;29;20114;-93
2022/12/25 07:39:34;;;;;;;0.98;0.98;;;;;;;-4.31;79.85;99767.25;4923140;29;20056;-89
2022/12/25 07:42:01;;;;;;;1.27;1.20;;;;;;;-4.27;79.67;99766.03;4937526;29;20071;-88
2022/12/25 07:44:29;;;;;;;0.93;0.93;;;;;;;-4.39;79.52;99762.63;4941042;29;20071;-89
2022/12/25 07:47:04;;;;;;;0.80;0.80;;;;;;;-4.36;79.51;99780.81;4921745;29;20221;-89
2022/12/25 07:49:39;;;;;;;0.90;0.90;;;;;;;-4.39;79.78;99781.06;4944360;29;20048;-91
2022/12/25 07:52:07;;;;;;;0.90;0.90;;;;;;;-4.18;79.65;99798.66;4925827;29;20036;-90
2022/12/25 07:54:49;;;;;;;0.82;0.82;;;;;;;-4.25;78.78;99803.66;4921770;29;20080;-88
2022/12/25 07:57:16;;;;;;;0.90;0.90;;;;;;;-4.27;78.86;99797.66;4948863;29;20120;-87
2022/12/25 07:59:43;;;;;;;0.85;0.85;;;;;;;-4.31;78.92;99784.88;4958944;28;20051;-86
2022/12/25 08:02:10;;;;;;;0.95;0.95;;;;;;;-4.32;78.89;99791.13;4937612;29;20063;-86
2022/12/25 08:04:38;;;;;;;0.93;0.93;;;;;;;-4.32;79.23;99796.38;4942255;29;20051;-86
2022/12/25 08:07:08;;;;;;;1.00;1.00;;;;;;;-4.20;79.74;99788.28;4952925;29;20047;-87
2022/12/25 08:09:35;;;;;;;0.70;0.70;;;;;;;-4.21;79.67;99791.03;4950337;29;20049;-85
2022/12/25 08:12:02;;;;;;;0.95;0.95;;;;;;;-4.15;80.02;99798.44;4933271;29;20044;-85
2022/12/25 08:14:29;;;;;;;0.85;0.85;;;;;;;-4.31;79.26;99792.78;4932922;29;20151;-89
2022/12/25 08:16:57;;;;;;;0.73;0.73;;;;;;;-4.31;79.47;99803.31;4948912;29;20688;-84
2022/12/25 08:19:24;;;;;;;1.05;1.05;;;;;;;-4.23;79.96;99816.69;4945190;29;20054;-87
2022/12/25 08:21:51;;;;;;;1.08;1.08;;;;;;;-4.27;80.20;99802.94;4916526;29;20793;-84
2022/12/25 08:24:19;;;;;;;0.93;0.93;;;;;;;-4.22;79.60;99823.63;4920784;29;20104;-85
2022/12/25 08:26:46;;;;;;;0.82;0.82;;;;;;;-4.10;79.88;99834.91;4937128;29;20047;-84
2022/12/25 08:29:13;;;;;;;0.88;0.88;;;;;;;-4.14;80.11;99816.75;4935427;29;20047;-84
2022/12/25 08:31:42;;;;;;;1.10;1.10;;;;;;;-4.10;80.05;99817.31;4951704;28;20062;-84
2022/12/25 08:34:12;;;;;;;1.02;1.02;;;;;;;-4.12;80.20;99824.53;4950026;29;20476;-85
2022/12/25 08:36:40;;;;;;;0.98;0.98;;;;;;;-3.89;80.25;99834.91;4942040;28;20079;-85
2022/12/25 08:39:07;;;;;;;0.93;0.93;;;;;;;-3.86;80.23;99839.91;4950804;29;20471;-86
2022/12/25 08:41:35;;;;;;;0.90;0.90;;;;;;;-3.90;80.34;99833.22;4936152;29;20056;-85
2022/12/25 08:44:03;;;;;;;0.90;0.90;;;;;;;-3.86;80.08;99846.03;4934734;29;20497;-86
2022/12/25 08:46:31;;;;;;;0.85;0.85;;;;;;;-3.97;80.10;99839.03;4946359;29;20114;-87
2022/12/25 08:48:58;;;;;;;1.00;1.00;;;;;;;-4.00;79.96;99838.44;4941699;28;20127;-85
2022/12/25 08:51:26;;;;;;;0.90;0.90;;;;;;;-3.96;80.22;99845.97;4939605;29;20090;-86
2022/12/25 08:53:58;;;;;;;1.00;1.00;;;;;;;-4.01;80.08;99828.88;4942772;29;21135;-87
2022/12/25 08:56:27;;;;;;;0.90;0.90;;;;;;;-3.91;80.13;99845.59;4923007;29;20079;-86
2022/12/25 08:58:54;;;;;;;1.00;1.00;;;;;;;-3.95;80.37;99841.53;4951024;28;20057;-84
2022/12/25 09:01:21;;;;;;;1.08;1.08;;;;;;;-3.89;79.81;99858.66;4938297;29;20078;-84
2022/12/25 09:03:48;;;;;;;1.00;1.00;;;;;;;-3.88;79.89;99858.50;4938176;29;20059;-86
2022/12/25 09:06:16;;;;;;;0.82;0.82;;;;;;;-3.98;79.28;99858.44;4947930;29;20058;-92
2022/12/25 09:08:44;;;;;;;1.00;1.00;;;;;;;-4.02;79.15;99861.50;4950620;29;20081;-87
2022/12/25 09:11:18;;;;;;;1.30;1.20;;;;;;;-4.07;79.07;99863.69;4960997;28;20059;-90
2022/12/25 09:13:47;;;;;;;1.15;1.13;;;;;;;-4.05;78.82;99867.88;4912952;29;20075;-89
2022/12/25 09:16:16;;;;;;;0.95;0.95;;;;;;;-4.01;78.88;99878.97;4945795;29;20051;-91
2022/12/25 09:18:44;;;;;;;1.10;1.10;;;;;;;-4.03;78.76;99873.81;4934827;29;20056;-86
2022/12/25 09:21:14;;;;;;;1.00;1.00;;;;;;;-4.23;78.55;99870.25;4943347;29;20511;-84
2022/12/25 09:23:42;;;;;;;1.05;1.05;;;;;;;-4.26;78.69;99867.84;4925308;29;20063;-89
2022/12/25 09:26:15;;;;;;;0.95;0.95;;;;;;;-4.21;78.83;99862.19;4959961;29;20130;-91
2022/12/25 09:28:44;;;;;;;0.95;0.95;;;;;;;-4.09;78.63;99890.19;4927482;29;20056;-92
2022/12/25 09:31:18;;;;;;;0.88;0.88;;;;;;;-4.10;78.53;99874.47;4939778;29;20059;-87
2022/12/25 09:33:46;;;;;;;1.10;1.10;;;;;;;-4.10;78.54;99883.25;4942281;29;20044;-86
2022/12/25 09:36:13;;;;;;;1.00;1.00;;;;;;;-4.16;78.38;99881.94;4943275;29;20047;-84
2022/12/25 09:38:40;;;;;;;1.08;1.08;;;;;;;-4.28;78.53;99879.50;4947482;28;20514;-83
2022/12/25 09:41:26;;;;;;;0.90;0.90;;;;;;;-4.24;79.10;99883.56;4957224;28;20059;-85
2022/12/25 09:44:01;;;;;;;1.00;1.00;;;;;;;-4.09;79.19;99889.34;4962324;28;20110;-89
2022/12/25 09:46:40;;;;;;;0.90;0.90;;;;;;;-4.12;79.23;99890.44;4946118;28;20047;-85
2022/12/25 09:49:29;;;;;;;0.70;0.70;;;;;;;-4.10;79.54;99885.03;4955264;28;20123;-88
2022/12/25 09:52:02;;;;;;;1.00;1.00;;;;;;;-4.04;78.95;99889.78;4928387;29;20083;-87
2022/12/25 09:54:43;;;;;;;0.98;0.98;;;;;;;-4.22;79.14;99879.00;4933312;29;20075;-90
2022/12/25 09:57:46;;;;;;;1.23;1.17;;;;;;;-4.16;79.01;99902.19;4947930;29;20074;-87
2022/12/25 10:00:32;;;;;;;1.00;1.00;;;;;;;-4.19;79.11;99900.66;4915223;29;20423;-90
2022/12/25 10:03:47;;;;;;;1.00;1.00;;;;;;;-4.12;79.25;99906.25;4943226;29;20404;-87
2022/12/25 10:06:56;;;;;;;1.10;1.10;;;;;;;-4.16;79.34;99913.56;4901617;29;20108;-87
2022/12/25 10:09:46;;;;;;;1.00;1.00;;;;;;;-4.24;79.42;99904.63;4835003;29;20065;-90
2022/12/25 10:12:37;;;;;;;0.85;0.85;;;;;;;-4.20;79.12;99908.69;4843763;29;20062;-90
2022/12/25 10:15:48;;;;;;;1.00;1.00;;;;;;;-4.27;79.25;99916.28;4813564;29;20054;-89
2022/12/25 10:18:43;;;;;;;0.95;0.95;;;;;;;-4.24;79.69;99925.72;4814739;29;20464;-88
2022/12/25 10:21:47;;;;;;;0.80;0.80;;;;;;;-4.22;79.60;99923.81;4829238;29;20054;-91
2022/12/25 10:24:34;;;;;;;1.00;1.00;;;;;;;-4.29;79.34;99920.00;4750300;30;20068;-89
2022/12/25 10:27:06;;;;;;;0.90;0.90;;;;;;;-4.27;79.13;99928.63;4764536;30;20131;-92
2022/12/25 10:32:56;;;;;;;1.10;1.10;;;;;;;-4.30;79.24;99916.53;4971157;28;20055;-92
2022/12/25 10:35:27;;;;;;;1.02;1.02;;;;;;;-4.09;79.39;99927.09;4963530;29;20062;-89
2022/12/25 10:38:14;;;;;;;0.90;0.90;;;;;;;-4.17;79.15;99926.91;4946582;29;20199;-92
2022/12/25 10:40:54;;;;;;;0.70;0.70;;;;;;;-4.17;78.96;99929.53;4953266;29;20078;-92
2022/12/25 10:43:53;;;;;;;0.90;0.90;;;;;;;-4.18;79.03;99931.34;4932866;29;20047;-90
2022/12/25 10:46:35;;;;;;;1.02;1.02;;;;;;;-4.32;79.05;99920.25;4965632;29;20054;-92
2022/12/25 10:49:02;;;;;;;1.02;1.02;;;;;;;-4.24;79.43;99916.00;4942113;29;20083;-92
2022/12/25 10:51:40;;;;;;;0.80;0.80;;;;;;;-4.42;79.57;99905.19;5029827;23;20030;-94
2022/12/25 10:54:25;;;;;;;0.82;0.82;;;;;;;-4.21;79.92;99936.00;4936918;28;20071;-90
2022/12/25 10:57:16;;;;;;;0.98;0.98;;;;;;;-4.25;79.62;99918.78;4943802;29;20138;-90
2022/12/25 10:59:45;;;;;;;0.80;0.80;;;;;;;-4.26;79.47;99927.66;4939223;29;20553;-89
2022/12/25 11:02:26;;;;;;;1.10;1.10;;;;;;;-4.28;79.48;99921.66;4924488;29;20465;-91
2022/12/25 11:05:07;;;;;;;0.90;0.90;;;;;;;-4.26;79.43;99933.75;4926008;29;20044;-93
2022/12/25 11:07:49;;;;;;;0.88;0.88;;;;;;;-4.23;79.61;99938.78;4957008;29;20056;-91
2022/12/25 11:10:32;;;;;;;0.65;0.65;;;;;;;-4.16;79.37;99953.13;4947408;29;20130;-91
2022/12/25 11:13:02;;;;;;;1.08;1.08;;;;;;;-4.24;79.19;99933.63;4935247;29;20051;-91
2022/12/25 11:15:46;;;;;;;0.77;0.77;;;;;;;-4.21;79.26;99930.75;4924531;29;20047;-91
2022/12/25 11:18:49;;;;;;;1.02;1.02;;;;;;;-4.21;79.31;99941.28;4935699;29;20062;-93
2022/12/25 11:21:36;;;;;;;0.88;0.88;;;;;;;-4.27;78.63;99949.72;4939508;29;20063;-94
2022/12/25 11:24:18;;;;;;;0.90;0.90;;;;;;;-4.39;78.78;99957.66;4938845;29;20051;-93
2022/12/25 11:26:58;;;;;;;0.90;0.90;;;;;;;-4.42;78.36;99946.53;5085807;23;20068;-94
2022/12/25 11:29:42;;;;;;;0.80;0.80;;;;;;;-4.38;78.44;99948.78;4914176;29;20048;-94
2022/12/25 11:32:40;;;;;;;1.05;1.05;;;;;;;-4.37;78.68;99942.56;4928288;29;20058;-93
2022/12/25 11:35:31;;;;;;;1.10;1.10;;;;;;;-4.43;78.73;99929.88;4946357;28;20070;-92
2022/12/25 11:37:58;;;;;;;1.00;1.00;;;;;;;-4.44;79.64;99945.81;4956898;28;20063;-94
2022/12/25 11:40:35;;;;;;;0.93;0.93;;;;;;;-4.58;80.62;99944.31;4957344;23;20078;-94
2022/12/25 11:43:21;;;;;;;0.73;0.73;;;;;;;-4.47;80.98;99962.72;5110018;23;20051;-93
2022/12/25 11:46:10;;;;;;;0.85;0.85;;;;;;;-4.53;81.41;99957.94;5088910;23;20414;-92
2022/12/25 11:49:00;;;;;;;0.85;0.85;;;;;;;-4.47;81.83;99961.88;4952227;29;20047;-92
2022/12/25 11:51:44;;;;;;;0.90;0.90;;;;;;;-4.42;81.91;99976.34;4953872;28;20051;-91
2022/12/25 11:54:51;;;;;;;0.80;0.80;;;;;;;-4.58;81.98;99950.41;5320345;23;20825;31
2022/12/25 11:57:18;;;;;;;1.00;1.00;;;;;;;-4.42;81.88;99976.34;4926770;29;20135;-90
2022/12/25 11:59:57;;;;;;;0.90;0.90;;;;;;;-4.44;80.77;99964.25;4901556;29;20048;-86
2022/12/25 12:02:30;;;;;;;0.90;0.90;;;;;;;-4.37;80.49;99979.44;4925362;29;20063;-91
2022/12/25 12:05:20;;;;;;;0.80;0.80;;;;;;;-4.41;80.18;99979.81;4926626;29;20047;-88
2022/12/25 12:07:59;;;;;;;0.70;0.70;;;;;;;-4.51;78.94;99997.34;4934175;29;20146;-90
2022/12/25 12:10:59;;;;;;;1.13;1.13;;;;;;;-4.51;78.94;100003.44;4938243;29;20870;-89
2022/12/25 12:13:55;;;;;;;1.00;1.00;;;;;;;-4.41;79.43;100008.81;4929463;29;20079;-92
2022/12/25 12:16:25;;;;;;;0.68;0.68;;;;;;;-4.49;79.55;100006.78;4905512;29;20056;-91
2022/12/25 12:18:54;;;;;;;0.90;0.90;;;;;;;-4.37;79.19;100013.72;4921639;29;20058;-89
2022/12/25 12:21:24;;;;;;;0.90;0.90;;;;;;;-4.39;78.97;100013.00;4925040;29;20538;-91
2022/12/25 12:24:03;;;;;;;0.82;0.82;;;;;;;-4.56;78.02;100005.59;4934622;29;20044;-90
2022/12/25 12:27:00;;;;;;;0.98;0.98;;;;;;;-4.48;78.21;100007.63;4899509;29;20074;-89
2022/12/25 12:29:48;;;;;;;0.88;0.88;;;;;;;-4.55;78.09;100002.03;4927409;29;20063;-91
2022/12/25 12:32:32;;;;;;;1.00;1.00;;;;;;;-4.62;78.15;100012.19;4909181;29;20037;-91
2022/12/25 12:35:28;;;;;;;0.82;0.82;;;;;;;-4.59;78.22;100011.94;4932714;29;20137;-90
2022/12/25 12:42:29;;;;;;;1.00;1.00;;;;;;;-4.54;77.97;100030.03;4905363;29;20151;-91
2022/12/25 12:45:30;;;;;;;0.90;0.90;;;;;;;-4.48;78.23;100026.94;4925963;29;20044;-91
2022/12/25 12:48:28;;;;;;;0.80;0.80;;;;;;;-4.40;78.51;100029.78;4878362;29;20063;-90
2022/12/25 12:51:06;;;;;;;1.00;1.00;;;;;;;-4.46;78.27;100013.59;4904975;29;20057;-89
2022/12/25 12:53:37;;;;;;;0.60;0.60;;;;;;;-4.52;77.76;100025.47;4904086;29;20140;-92
2022/12/25 12:56:17;;;;;;;1.00;1.00;;;;;;;-4.45;77.87;100020.56;4892429;29;20064;-91
2022/12/25 12:58:49;;;;;;;0.90;0.90;;;;;;;-4.46;77.29;100032.06;4916542;29;20049;-90
2022/12/25 13:01:27;;;;;;;0.90;0.90;;;;;;;-4.57;76.36;100027.66;4920075;29;20104;-93
2022/12/25 13:04:35;;;;;;;1.08;1.08;;;;;;;-4.56;76.50;100031.94;4900603;29;20049;-92
2022/12/25 13:07:23;;;;;;;1.10;1.10;;;;;;;-4.59;75.81;100034.84;4911992;29;20056;-92
2022/12/25 13:10:23;;;;;;;0.93;0.93;;;;;;;-4.59;76.12;100029.56;4930275;29;20052;-89
2022/12/25 13:12:58;;;;;;;0.75;0.75;;;;;;;-4.50;76.74;100042.00;4889591;29;20051;-85
2022/12/25 13:15:30;;;;;;;0.90;0.90;;;;;;;-4.52;77.03;100045.72;4903370;29;20076;-90
2022/12/25 13:18:02;;;;;;;0.70;0.70;;;;;;;-4.45;77.28;100053.03;4886641;29;20055;-88
2022/12/25 13:20:40;;;;;;;0.90;0.90;;;;;;;-4.51;77.17;100029.78;4918428;29;20527;-88
2022/12/25 13:23:25;;;;;;;0.80;0.80;;;;;;;-4.40;77.13;100039.47;4984811;23;20757;-88
2022/12/25 13:25:58;;;;;;;1.08;1.08;;;;;;;-4.52;77.20;100030.75;4949089;29;20051;-89
2022/12/25 13:28:33;;;;;;;0.85;0.85;;;;;;;-4.40;77.10;100053.50;4928825;29;20114;-89
2022/12/25 13:31:36;;;;;;;0.98;0.98;;;;;;;-4.43;76.96;100052.88;4962211;28;20079;-91
2022/12/25 13:35:02;;;;;;;1.00;1.00;;;;;;;-4.40;76.76;100057.94;4838051;29;20050;-92
2022/12/25 13:37:34;;;;;;;0.80;0.80;;;;;;;-4.54;76.68;100045.84;4856652;29;20071;-93
2022/12/25 13:40:26;;;;;;;0.90;0.90;;;;;;;-4.49;76.93;100051.56;4853744;29;20057;-91
2022/12/25 13:43:00;;;;;;;1.17;1.17;;;;;;;-4.47;77.13;100065.47;4938833;23;20054;-87
2022/12/25 13:45:32;;;;;;;1.00;1.00;;;;;;;-4.40;77.13;100055.28;4931848;29;20051;-89
2022/12/25 13:48:13;;;;;;;1.13;1.13;;;;;;;-4.40;76.90;100053.50;4942508;28;20138;-87
2022/12/25 13:50:47;;;;;;;0.70;0.70;;;;;;;-4.36;77.02;100065.44;4971402;28;20053;-85
2022/12/25 13:53:15;;;;;;;0.98;0.98;;;;;;;-4.40;77.23;100064.03;4959594;28;20146;-87
2022/12/25 13:55:51;;;;;;;1.10;1.10;;;;;;;-4.42;77.20;100076.50;4955513;28;20050;-86
2022/12/25 13:58:26;;;;;;;0.90;0.90;;;;;;;-4.45;76.72;100086.44;4902531;29;20047;-87
2022/12/25 14:00:56;;;;;;;0.70;0.70;;;;;;;-4.48;76.58;100074.34;4934959;29;20475;-86